sensor_id;sensor_type;location;lat;lon;timestamp;pressure;altitude;pressure_sealevel;temperature;humidity
55424;BME280;41294;42.666;23.350;2023-03-22T00:01:07;94655.56;;;11.11;100.00
55424;BME280;41294;42.666;23.350;2023-03-22T00:03:37;94656.59;;;11.05;100.00
55424;BME280;41294;42.666;23.350;2023-03-22T00:06:02;94657.50;;;11.02;100.00
55424;BME280;41294;42.666;23.350;2023-03-22T00:08:28;94657.34;;;11.05;100.00
55424;BME280;41294;42.666;23.350;2023-03-22T00:10:53;94654.22;;;11.16;100.00
55424;BME280;41294;42.666;23.350;2023-03-22T00:13:19;94658.91;;;11.12;100.00
55424;BME280;41294;42.666;23.350;2023-03-22T00:15:45;94644.56;;;11.13;100.00
55424;BME280;41294;42.666;23.350;2023-03-22T00:18:14;94654.25;;;11.07;100.00
55424;BME280;41294;42.666;23.350;2023-03-22T00:20:51;94654.84;;;11.02;100.00
55424;BME280;41294;42.666;23.350;2023-03-22T00:23:17;94653.97;;;11.05;100.00
55424;BME280;41294;42.666;23.350;2023-03-22T00:25:43;94649.72;;;11.07;100.00
55424;BME280;41294;42.666;23.350;2023-03-22T00:28:09;94641.97;;;11.04;100.00
55424;BME280;41294;42.666;23.350;2023-03-22T00:30:34;94643.19;;;10.94;100.00
55424;BME280;41294;42.666;23.350;2023-03-22T00:33:00;94653.50;;;10.83;100.00
55424;BME280;41294;42.666;23.350;2023-03-22T00:35:25;94645.31;;;10.81;100.00
55424;BME280;41294;42.666;23.350;2023-03-22T00:37:51;94647.31;;;10.86;100.00
55424;BME280;41294;42.666;23.350;2023-03-22T00:40:17;94645.94;;;10.67;100.00
55424;BME280;41294;42.666;23.350;2023-03-22T00:42:42;94642.72;;;10.72;100.00
55424;BME280;41294;42.666;23.350;2023-03-22T00:45:10;94647.91;;;10.90;100.00
55424;BME280;41294;42.666;23.350;2023-03-22T00:47:36;94629.81;;;10.83;100.00
55424;BME280;41294;42.666;23.350;2023-03-22T00:50:02;94648.28;;;10.74;100.00
55424;BME280;41294;42.666;23.350;2023-03-22T00:52:28;94642.13;;;10.68;100.00
55424;BME280;41294;42.666;23.350;2023-03-22T00:54:54;94633.59;;;10.82;100.00
55424;BME280;41294;42.666;23.350;2023-03-22T00:57:20;94639.31;;;10.80;100.00
55424;BME280;41294;42.666;23.350;2023-03-22T00:59:45;94633.00;;;10.87;100.00
55424;BME280;41294;42.666;23.350;2023-03-22T01:02:11;94641.00;;;10.92;100.00
55424;BME280;41294;42.666;23.350;2023-03-22T01:04:40;94638.59;;;10.80;100.00
55424;BME280;41294;42.666;23.350;2023-03-22T01:07:13;94633.00;;;10.87;100.00
55424;BME280;41294;42.666;23.350;2023-03-22T01:09:45;94627.03;;;10.77;100.00
55424;BME280;41294;42.666;23.350;2023-03-22T01:12:11;94629.72;;;10.68;100.00
55424;BME280;41294;42.666;23.350;2023-03-22T01:14:37;94629.97;;;10.70;100.00
55424;BME280;41294;42.666;23.350;2023-03-22T01:17:03;94630.59;;;10.65;100.00
55424;BME280;41294;42.666;23.350;2023-03-22T01:19:28;94625.63;;;10.67;100.00
55424;BME280;41294;42.666;23.350;2023-03-22T01:21:55;94630.75;;;10.62;100.00
55424;BME280;41294;42.666;23.350;2023-03-22T01:24:21;94627.34;;;10.70;100.00
55424;BME280;41294;42.666;23.350;2023-03-22T01:26:47;94621.91;;;10.83;100.00
55424;BME280;41294;42.666;23.350;2023-03-22T01:29:12;94621.03;;;10.77;100.00
55424;BME280;41294;42.666;23.350;2023-03-22T01:31:38;94622.50;;;10.78;100.00
55424;BME280;41294;42.666;23.350;2023-03-22T01:34:03;94612.59;;;10.73;100.00
55424;BME280;41294;42.666;23.350;2023-03-22T01:36:29;94607.66;;;10.66;100.00
55424;BME280;41294;42.666;23.350;2023-03-22T01:38:54;94614.81;;;10.65;100.00
55424;BME280;41294;42.666;23.350;2023-03-22T01:41:20;94616.72;;;10.65;100.00
55424;BME280;41294;42.666;23.350;2023-03-22T01:44:07;94609.97;;;10.73;100.00
55424;BME280;41294;42.666;23.350;2023-03-22T01:46:32;94604.72;;;10.64;100.00
55424;BME280;41294;42.666;23.350;2023-03-22T01:48:59;94611.31;;;10.60;100.00
55424;BME280;41294;42.666;23.350;2023-03-22T01:51:25;94608.78;;;10.74;100.00
55424;BME280;41294;42.666;23.350;2023-03-22T01:53:54;94605.59;;;10.61;100.00
55424;BME280;41294;42.666;23.350;2023-03-22T01:56:23;94609.13;;;10.58;100.00
55424;BME280;41294;42.666;23.350;2023-03-22T01:58:51;94602.13;;;10.55;100.00
55424;BME280;41294;42.666;23.350;2023-03-22T02:01:18;94612.69;;;10.46;100.00
55424;BME280;41294;42.666;23.350;2023-03-22T02:03:57;94604.94;;;10.52;100.00
55424;BME280;41294;42.666;23.350;2023-03-22T02:06:24;94603.00;;;10.52;100.00
55424;BME280;41294;42.666;23.350;2023-03-22T02:08:50;94605.97;;;10.45;100.00
55424;BME280;41294;42.666;23.350;2023-03-22T02:11:28;94612.03;;;10.60;100.00
55424;BME280;41294;42.666;23.350;2023-03-22T02:14:05;94609.13;;;10.58;100.00
55424;BME280;41294;42.666;23.350;2023-03-22T02:21:53;94610.06;;;10.46;100.00
55424;BME280;41294;42.666;23.350;2023-03-22T02:33:41;94620.63;;;10.28;100.00
55424;BME280;41294;42.666;23.350;2023-03-22T02:49:20;94636.09;;;10.35;100.00
55424;BME280;41294;42.666;23.350;2023-03-22T02:54:34;94636.25;;;10.32;100.00
55424;BME280;41294;42.666;23.350;2023-03-22T02:57:12;94636.25;;;10.32;100.00
55424;BME280;41294;42.666;23.350;2023-03-22T02:59:40;94632.47;;;10.33;100.00
55424;BME280;41294;42.666;23.350;2023-03-22T03:02:09;94626.31;;;10.27;100.00
55424;BME280;41294;42.666;23.350;2023-03-22T03:04:41;94634.66;;;10.16;100.00
55424;BME280;41294;42.666;23.350;2023-03-22T03:07:10;94634.97;;;10.18;100.00
55424;BME280;41294;42.666;23.350;2023-03-22T03:09:39;94637.75;;;10.15;100.00
55424;BME280;41294;42.666;23.350;2023-03-22T03:12:25;94638.16;;;10.22;100.00
55424;BME280;41294;42.666;23.350;2023-03-22T03:14:52;94642.97;;;10.33;100.00
55424;BME280;41294;42.666;23.350;2023-03-22T03:20:39;94636.09;;;10.35;100.00
55424;BME280;41294;42.666;23.350;2023-03-22T03:23:27;94635.38;;;10.35;100.00
55424;BME280;41294;42.666;23.350;2023-03-22T03:28:59;94641.97;;;10.21;100.00
55424;BME280;41294;42.666;23.350;2023-03-22T03:31:29;94637.88;;;10.29;100.00
55424;BME280;41294;42.666;23.350;2023-03-22T03:33:57;94647.50;;;10.32;100.00
55424;BME280;41294;42.666;23.350;2023-03-22T03:36:24;94641.84;;;10.25;100.00
55424;BME280;41294;42.666;23.350;2023-03-22T03:38:51;94643.41;;;10.22;100.00
55424;BME280;41294;42.666;23.350;2023-03-22T03:41:25;94644.59;;;10.30;100.00
55424;BME280;41294;42.666;23.350;2023-03-22T03:43:51;94644.69;;;10.45;100.00
55424;BME280;41294;42.666;23.350;2023-03-22T03:46:17;94646.47;;;10.30;100.00
55424;BME280;41294;42.666;23.350;2023-03-22T03:48:46;94647.09;;;10.25;100.00
55424;BME280;41294;42.666;23.350;2023-03-22T03:51:12;94650.16;;;10.23;100.00
55424;BME280;41294;42.666;23.350;2023-03-22T03:53:38;94642.53;;;10.34;100.00
55424;BME280;41294;42.666;23.350;2023-03-22T03:56:03;94648.41;;;10.29;100.00
55424;BME280;41294;42.666;23.350;2023-03-22T03:58:29;94655.81;;;10.40;100.00
55424;BME280;41294;42.666;23.350;2023-03-22T04:00:55;94657.84;;;10.36;100.00
55424;BME280;41294;42.666;23.350;2023-03-22T04:03:20;94650.56;;;10.31;100.00
55424;BME280;41294;42.666;23.350;2023-03-22T04:05:46;94654.38;;;10.30;100.00
55424;BME280;41294;42.666;23.350;2023-03-22T04:08:12;94650.88;;;10.33;100.00
55424;BME280;41294;42.666;23.350;2023-03-22T04:10:37;94656.84;;;10.33;100.00
55424;BME280;41294;42.666;23.350;2023-03-22T04:13:03;94665.06;;;10.26;100.00
55424;BME280;41294;42.666;23.350;2023-03-22T04:15:28;94661.25;;;10.27;100.00
55424;BME280;41294;42.666;23.350;2023-03-22T04:17:53;94669.44;;;10.29;100.00
55424;BME280;41294;42.666;23.350;2023-03-22T04:20:19;94665.06;;;10.17;100.00
55424;BME280;41294;42.666;23.350;2023-03-22T04:22:45;94663.31;;;10.14;100.00
55424;BME280;41294;42.666;23.350;2023-03-22T04:25:13;94669.00;;;10.22;100.00
55424;BME280;41294;42.666;23.350;2023-03-22T04:27:42;94662.00;;;10.10;100.00
55424;BME280;41294;42.666;23.350;2023-03-22T04:30:11;94667.13;;;10.13;100.00
55424;BME280;41294;42.666;23.350;2023-03-22T04:32:37;94672.94;;;10.26;100.00
55424;BME280;41294;42.666;23.350;2023-03-22T04:35:04;94663.19;;;10.18;100.00
55424;BME280;41294;42.666;23.350;2023-03-22T04:37:29;94676.59;;;10.20;100.00
55424;BME280;41294;42.666;23.350;2023-03-22T04:39:58;94670.47;;;10.14;100.00
55424;BME280;41294;42.666;23.350;2023-03-22T04:42:24;94670.47;;;10.14;100.00
55424;BME280;41294;42.666;23.350;2023-03-22T04:44:51;94671.19;;;10.23;100.00
55424;BME280;41294;42.666;23.350;2023-03-22T04:47:17;94671.19;;;10.14;100.00
55424;BME280;41294;42.666;23.350;2023-03-22T04:49:43;94682.00;;;10.16;100.00
55424;BME280;41294;42.666;23.350;2023-03-22T04:52:09;94689.00;;;10.37;100.00
55424;BME280;41294;42.666;23.350;2023-03-22T04:54:34;94688.72;;;10.35;100.00
55424;BME280;41294;42.666;23.350;2023-03-22T04:57:00;94693.69;;;10.24;100.00
55424;BME280;41294;42.666;23.350;2023-03-22T04:59:25;94685.22;;;10.29;100.00
55424;BME280;41294;42.666;23.350;2023-03-22T05:01:51;94687.28;;;10.16;100.00
55424;BME280;41294;42.666;23.350;2023-03-22T05:04:17;94696.00;;;10.31;100.00
55424;BME280;41294;42.666;23.350;2023-03-22T05:06:43;94689.88;;;10.34;100.00
55424;BME280;41294;42.666;23.350;2023-03-22T05:09:09;94698.38;;;10.29;100.00
55424;BME280;41294;42.666;23.350;2023-03-22T05:11:35;94698.38;;;10.38;100.00
55424;BME280;41294;42.666;23.350;2023-03-22T05:14:01;94703.03;;;10.34;100.00
55424;BME280;41294;42.666;23.350;2023-03-22T05:16:27;94699.84;;;10.30;100.00
55424;BME280;41294;42.666;23.350;2023-03-22T05:18:53;94703.78;;;10.26;100.00
55424;BME280;41294;42.666;23.350;2023-03-22T05:21:21;94704.22;;;10.24;100.00
55424;BME280;41294;42.666;23.350;2023-03-22T05:23:53;94705.38;;;10.32;100.00
55424;BME280;41294;42.666;23.350;2023-03-22T05:26:18;94708.59;;;10.27;100.00
55424;BME280;41294;42.666;23.350;2023-03-22T05:28:45;94710.50;;;10.27;100.00
55424;BME280;41294;42.666;23.350;2023-03-22T05:31:10;94719.13;;;10.36;100.00
55424;BME280;41294;42.666;23.350;2023-03-22T05:33:39;94717.06;;;10.31;100.00
55424;BME280;41294;42.666;23.350;2023-03-22T05:36:06;94718.53;;;10.32;100.00
55424;BME280;41294;42.666;23.350;2023-03-22T05:38:32;94717.50;;;10.48;100.00
55424;BME280;41294;42.666;23.350;2023-03-22T05:40:58;94716.19;;;10.43;100.00
55424;BME280;41294;42.666;23.350;2023-03-22T05:43:23;94713.09;;;10.45;100.00
55424;BME280;41294;42.666;23.350;2023-03-22T05:45:49;94719.97;;;10.42;100.00
55424;BME280;41294;42.666;23.350;2023-03-22T05:48:15;94721.28;;;10.47;100.00
55424;BME280;41294;42.666;23.350;2023-03-22T05:50:41;94730.50;;;10.42;100.00
55424;BME280;41294;42.666;23.350;2023-03-22T05:53:06;94728.75;;;10.48;100.00
55424;BME280;41294;42.666;23.350;2023-03-22T05:55:31;94734.03;;;10.48;100.00
55424;BME280;41294;42.666;23.350;2023-03-22T05:57:58;94735.44;;;10.58;100.00
55424;BME280;41294;42.666;23.350;2023-03-22T06:00:24;94742.31;;;10.64;100.00
55424;BME280;41294;42.666;23.350;2023-03-22T06:02:50;94734.41;;;10.64;100.00
55424;BME280;41294;42.666;23.350;2023-03-22T06:05:21;94740.69;;;10.67;100.00
55424;BME280;41294;42.666;23.350;2023-03-22T06:07:46;94741.44;;;10.59;100.00
55424;BME280;41294;42.666;23.350;2023-03-22T06:10:14;94741.88;;;10.66;100.00
55424;BME280;41294;42.666;23.350;2023-03-22T06:12:39;94739.97;;;10.66;100.00
55424;BME280;41294;42.666;23.350;2023-03-22T06:15:05;94743.78;;;10.65;100.00
55424;BME280;41294;42.666;23.350;2023-03-22T06:17:31;94747.56;;;10.64;100.00
55424;BME280;41294;42.666;23.350;2023-03-22T06:19:57;94744.53;;;10.66;100.00
55424;BME280;41294;42.666;23.350;2023-03-22T06:22:22;94745.97;;;10.67;100.00
55424;BME280;41294;42.666;23.350;2023-03-22T06:24:48;94744.81;;;10.59;100.00
55424;BME280;41294;42.666;23.350;2023-03-22T06:27:14;94741.88;;;10.66;100.00
55424;BME280;41294;42.666;23.350;2023-03-22T06:29:40;94751.81;;;10.71;100.00
55424;BME280;41294;42.666;23.350;2023-03-22T06:32:06;94750.34;;;10.79;100.00
55424;BME280;41294;42.666;23.350;2023-03-22T06:34:32;94759.53;;;10.83;100.00
55424;BME280;41294;42.666;23.350;2023-03-22T06:36:57;94756.44;;;10.85;100.00
55424;BME280;41294;42.666;23.350;2023-03-22T06:39:23;94763.94;;;10.86;100.00
55424;BME280;41294;42.666;23.350;2023-03-22T06:41:50;94756.72;;;10.96;100.00
55424;BME280;41294;42.666;23.350;2023-03-22T06:44:16;94758.81;;;10.83;100.00
55424;BME280;41294;42.666;23.350;2023-03-22T06:46:41;94760.84;;;10.88;100.00
55424;BME280;41294;42.666;23.350;2023-03-22T06:49:07;94757.88;;;10.95;100.00
55424;BME280;41294;42.666;23.350;2023-03-22T06:51:33;94760.22;;;11.02;100.00
55424;BME280;41294;42.666;23.350;2023-03-22T06:53:58;94768.09;;;11.11;100.00
55424;BME280;41294;42.666;23.350;2023-03-22T06:56:24;94765.97;;;11.33;100.00
55424;BME280;41294;42.666;23.350;2023-03-22T06:58:50;94771.94;;;11.33;100.00
55424;BME280;41294;42.666;23.350;2023-03-22T07:01:22;94769.47;;;11.30;100.00
55424;BME280;41294;42.666;23.350;2023-03-22T07:03:47;94776.38;;;11.27;100.00
55424;BME280;41294;42.666;23.350;2023-03-22T07:06:13;94778.56;;;11.29;100.00
55424;BME280;41294;42.666;23.350;2023-03-22T07:08:38;94777.06;;;11.37;100.00
55424;BME280;41294;42.666;23.350;2023-03-22T07:11:05;94782.91;;;11.41;100.00
55424;BME280;41294;42.666;23.350;2023-03-22T07:13:30;94784.22;;;11.54;100.00
55424;BME280;41294;42.666;23.350;2023-03-22T07:15:57;94778.50;;;11.46;100.00
55424;BME280;41294;42.666;23.350;2023-03-22T07:18:23;94787.28;;;11.52;100.00
55424;BME280;41294;42.666;23.350;2023-03-22T07:20:49;94792.56;;;11.52;98.75
55424;BME280;41294;42.666;23.350;2023-03-22T07:23:15;94788.63;;;11.39;99.19
55424;BME280;41294;42.666;23.350;2023-03-22T07:25:41;94796.97;;;11.38;99.72
55424;BME280;41294;42.666;23.350;2023-03-22T07:28:07;94797.13;;;11.34;100.00
55424;BME280;41294;42.666;23.350;2023-03-22T07:30:34;94803.66;;;11.47;100.00
55424;BME280;41294;42.666;23.350;2023-03-22T07:33:05;94793.56;;;11.55;99.69
55424;BME280;41294;42.666;23.350;2023-03-22T07:35:31;94805.88;;;11.58;99.61
55424;BME280;41294;42.666;23.350;2023-03-22T07:37:57;94807.88;;;11.63;99.13
55424;BME280;41294;42.666;23.350;2023-03-22T07:40:23;94800.44;;;11.61;99.45
55424;BME280;41294;42.666;23.350;2023-03-22T07:42:49;94798.97;;;11.60;100.00
55424;BME280;41294;42.666;23.350;2023-03-22T07:45:15;94807.03;;;11.57;99.86
55424;BME280;41294;42.666;23.350;2023-03-22T07:47:41;94814.78;;;11.60;99.04
55424;BME280;41294;42.666;23.350;2023-03-22T07:50:07;94811.03;;;11.44;98.65
55424;BME280;41294;42.666;23.350;2023-03-22T07:52:33;94813.38;;;11.42;99.50
55424;BME280;41294;42.666;23.350;2023-03-22T07:55:00;94812.22;;;11.34;100.00
55424;BME280;41294;42.666;23.350;2023-03-22T07:57:26;94811.75;;;11.44;98.83
55424;BME280;41294;42.666;23.350;2023-03-22T07:59:52;94817.31;;;11.46;99.16
55424;BME280;41294;42.666;23.350;2023-03-22T08:02:18;94808.38;;;11.52;99.10
55424;BME280;41294;42.666;23.350;2023-03-22T08:04:44;94818.31;;;11.48;99.44
55424;BME280;41294;42.666;23.350;2023-03-22T08:07:10;94819.06;;;11.49;99.57
55424;BME280;41294;42.666;23.350;2023-03-22T08:09:36;94813.66;;;11.52;100.00
55424;BME280;41294;42.666;23.350;2023-03-22T08:12:02;94825.94;;;11.46;99.91
55424;BME280;41294;42.666;23.350;2023-03-22T08:14:28;94813.22;;;11.45;100.00
55424;BME280;41294;42.666;23.350;2023-03-22T08:16:56;94813.09;;;11.31;100.00
55424;BME280;41294;42.666;23.350;2023-03-22T08:19:22;94812.06;;;11.37;100.00
55424;BME280;41294;42.666;23.350;2023-03-22T08:21:47;94807.13;;;11.30;100.00
55424;BME280;41294;42.666;23.350;2023-03-22T08:24:12;94822.44;;;11.41;100.00
55424;BME280;41294;42.666;23.350;2023-03-22T08:26:39;94824.22;;;11.44;100.00
55424;BME280;41294;42.666;23.350;2023-03-22T08:29:05;94820.69;;;11.38;100.00
55424;BME280;41294;42.666;23.350;2023-03-22T08:31:32;94821.97;;;11.51;100.00
55424;BME280;41294;42.666;23.350;2023-03-22T08:33:57;94831.78;;;11.50;100.00
55424;BME280;41294;42.666;23.350;2023-03-22T08:36:23;94831.03;;;11.50;100.00
55424;BME280;41294;42.666;23.350;2023-03-22T08:38:48;94821.41;;;11.56;100.00
55424;BME280;41294;42.666;23.350;2023-03-22T08:41:14;94832.66;;;11.47;100.00
55424;BME280;41294;42.666;23.350;2023-03-22T08:43:41;94822.13;;;11.47;100.00
55424;BME280;41294;42.666;23.350;2023-03-22T08:46:06;94829.31;;;11.47;100.00
55424;BME280;41294;42.666;23.350;2023-03-22T08:48:34;94831.19;;;11.46;100.00
55424;BME280;41294;42.666;23.350;2023-03-22T08:51:03;94831.78;;;11.59;100.00
55424;BME280;41294;42.666;23.350;2023-03-22T08:53:29;94833.22;;;11.69;100.00
55424;BME280;41294;42.666;23.350;2023-03-22T08:55:55;94830.56;;;11.69;100.00
55424;BME280;41294;42.666;23.350;2023-03-22T08:58:22;94837.56;;;11.72;100.00
55424;BME280;41294;42.666;23.350;2023-03-22T09:00:47;94843.25;;;11.80;100.00
55424;BME280;41294;42.666;23.350;2023-03-22T09:03:13;94841.31;;;11.89;100.00
55424;BME280;41294;42.666;23.350;2023-03-22T09:05:40;94838.91;;;12.00;99.09
55424;BME280;41294;42.666;23.350;2023-03-22T09:08:06;94840.69;;;11.94;98.23
55424;BME280;41294;42.666;23.350;2023-03-22T09:10:31;94843.50;;;11.91;98.52
55424;BME280;41294;42.666;23.350;2023-03-22T09:12:57;94840.59;;;11.89;97.51
55424;BME280;41294;42.666;23.350;2023-03-22T09:15:22;94851.47;;;11.82;97.09
55424;BME280;41294;42.666;23.350;2023-03-22T09:17:48;94838.56;;;11.84;97.37
55424;BME280;41294;42.666;23.350;2023-03-22T09:20:14;94844.84;;;11.86;97.31
55424;BME280;41294;42.666;23.350;2023-03-22T09:22:39;94844.50;;;11.93;96.88
55424;BME280;41294;42.666;23.350;2023-03-22T09:25:05;94844.50;;;11.93;96.15
55424;BME280;41294;42.666;23.350;2023-03-22T09:27:32;94847.59;;;11.92;97.36
55424;BME280;41294;42.666;23.350;2023-03-22T09:29:58;94843.59;;;12.05;97.19
55424;BME280;41294;42.666;23.350;2023-03-22T09:32:24;94845.44;;;12.14;96.50
55424;BME280;41294;42.666;23.350;2023-03-22T09:34:50;94848.28;;;12.01;97.08
55424;BME280;41294;42.666;23.350;2023-03-22T09:37:16;94844.75;;;12.04;97.03
55424;BME280;41294;42.666;23.350;2023-03-22T09:39:41;94846.28;;;11.96;97.72
55424;BME280;41294;42.666;23.350;2023-03-22T09:42:25;94838.91;;;12.00;97.00
55424;BME280;41294;42.666;23.350;2023-03-22T09:44:53;94845.75;;;12.07;97.02
55424;BME280;41294;42.666;23.350;2023-03-22T09:47:36;94847.94;;;12.08;97.33
55424;BME280;41294;42.666;23.350;2023-03-22T09:50:15;94837.34;;;12.17;96.37
55424;BME280;41294;42.666;23.350;2023-03-22T09:52:43;94841.78;;;12.11;97.22
55424;BME280;41294;42.666;23.350;2023-03-22T09:58:18;94846.00;;;12.18;96.94
55424;BME280;41294;42.666;23.350;2023-03-22T10:01:12;94851.34;;;12.32;96.07
55424;BME280;41294;42.666;23.350;2023-03-22T10:04:05;94847.28;;;12.22;95.96
55424;BME280;41294;42.666;23.350;2023-03-22T10:06:39;94853.63;;;12.39;96.79
55424;BME280;41294;42.666;23.350;2023-03-22T10:09:23;94855.22;;;12.60;95.23
55424;BME280;41294;42.666;23.350;2023-03-22T10:12:40;94860.88;;;12.53;94.85
55424;BME280;41294;42.666;23.350;2023-03-22T10:14:49;94854.97;;;12.58;94.37
55424;BME280;41294;42.666;23.350;2023-03-22T10:17:18;94859.19;;;12.41;95.19
55424;BME280;41294;42.666;23.350;2023-03-22T10:20:23;94864.69;;;12.52;95.01
55424;BME280;41294;42.666;23.350;2023-03-22T10:22:53;94861.06;;;12.64;94.82
55424;BME280;41294;42.666;23.350;2023-03-22T10:25:23;94870.53;;;12.56;95.14
55424;BME280;41294;42.666;23.350;2023-03-22T10:27:52;94867.06;;;12.50;95.87
55424;BME280;41294;42.666;23.350;2023-03-22T10:30:24;94861.91;;;12.32;96.68
55424;BME280;41294;42.666;23.350;2023-03-22T10:33:03;94853.34;;;12.37;96.04
55424;BME280;41294;42.666;23.350;2023-03-22T10:35:29;94856.88;;;12.34;96.62
55424;BME280;41294;42.666;23.350;2023-03-22T10:37:58;94854.25;;;12.34;96.73
55424;BME280;41294;42.666;23.350;2023-03-22T10:40:30;94859.41;;;12.52;95.78
55424;BME280;41294;42.666;23.350;2023-03-22T10:43:01;94863.75;;;12.40;95.66
55424;BME280;41294;42.666;23.350;2023-03-22T10:45:30;94862.09;;;12.43;95.32
55424;BME280;41294;42.666;23.350;2023-03-22T10:48:46;94863.03;;;12.40;94.98
55424;BME280;41294;42.666;23.350;2023-03-22T10:50:47;94861.16;;;12.31;96.59
55424;BME280;41294;42.666;23.350;2023-03-22T10:53:31;94855.63;;;12.44;96.73
55424;BME280;41294;42.666;23.350;2023-03-22T10:55:59;94856.63;;;12.32;93.59
55424;BME280;41294;42.666;23.350;2023-03-22T10:58:29;94856.28;;;12.39;91.51
55424;BME280;41294;42.666;23.350;2023-03-22T11:01:30;94843.06;;;12.39;91.77
55424;BME280;41294;42.666;23.350;2023-03-22T11:03:49;94851.28;;;12.41;92.47
55424;BME280;41294;42.666;23.350;2023-03-22T11:06:18;94849.19;;;12.45;93.25
55424;BME280;41294;42.666;23.350;2023-03-22T11:09:21;94851.59;;;12.57;92.36
55424;BME280;41294;42.666;23.350;2023-03-22T11:11:54;94842.31;;;12.62;91.42
55424;BME280;41294;42.666;23.350;2023-03-22T11:14:30;94845.94;;;12.64;88.95
55424;BME280;41294;42.666;23.350;2023-03-22T11:17:10;94853.56;;;12.48;90.51
55424;BME280;41294;42.666;23.350;2023-03-22T11:19:41;94845.00;;;12.53;90.13
55424;BME280;41294;42.666;23.350;2023-03-22T11:22:32;94844.06;;;12.41;89.44
55424;BME280;41294;42.666;23.350;2023-03-22T11:25:28;94845.09;;;12.44;90.15
55424;BME280;41294;42.666;23.350;2023-03-22T11:28:07;94850.66;;;12.46;89.41
55424;BME280;41294;42.666;23.350;2023-03-22T11:30:35;94843.22;;;12.59;90.19
55424;BME280;41294;42.666;23.350;2023-03-22T11:33:17;94848.00;;;12.46;89.45
55424;BME280;41294;42.666;23.350;2023-03-22T11:35:46;94845.94;;;12.50;89.40
55424;BME280;41294;42.666;23.350;2023-03-22T11:40:58;94841.78;;;12.58;88.55
55424;BME280;41294;42.666;23.350;2023-03-22T11:43:42;94841.19;;;12.54;87.88
55424;BME280;41294;42.666;23.350;2023-03-22T11:46:15;94841.78;;;12.58;88.30
55424;BME280;41294;42.666;23.350;2023-03-22T11:48:45;94837.03;;;12.62;88.15
55424;BME280;41294;42.666;23.350;2023-03-22T11:51:25;94835.56;;;12.61;88.78
55424;BME280;41294;42.666;23.350;2023-03-22T11:53:57;94840.31;;;12.57;89.51
55424;BME280;41294;42.666;23.350;2023-03-22T11:56:28;94842.31;;;12.62;89.53
55424;BME280;41294;42.666;23.350;2023-03-22T12:01:34;94841.94;;;12.54;90.17
55424;BME280;41294;42.666;23.350;2023-03-22T12:04:04;94846.47;;;12.54;90.01
55424;BME280;41294;42.666;23.350;2023-03-22T12:06:35;94841.19;;;12.54;89.64
55424;BME280;41294;42.666;23.350;2023-03-22T12:09:22;94846.19;;;12.52;89.91
55424;BME280;41294;42.666;23.350;2023-03-22T12:11:52;94842.19;;;12.56;89.69
55424;BME280;41294;42.666;23.350;2023-03-22T12:17:27;94835.63;;;12.52;89.44
55424;BME280;41294;42.666;23.350;2023-03-22T12:20:15;94839.88;;;12.35;89.10
55424;BME280;41294;42.666;23.350;2023-03-22T12:22:47;94838.91;;;12.24;89.98
55424;BME280;41294;42.666;23.350;2023-03-22T12:25:18;94835.69;;;12.43;89.55
55424;BME280;41294;42.666;23.350;2023-03-22T12:27:46;94830.63;;;12.54;87.90
55424;BME280;41294;42.666;23.350;2023-03-22T12:30:19;94830.84;;;12.65;86.29
55424;BME280;41294;42.666;23.350;2023-03-22T12:32:51;94835.53;;;12.46;89.41
55424;BME280;41294;42.666;23.350;2023-03-22T12:35:25;94828.00;;;12.92;88.11
55424;BME280;41294;42.666;23.350;2023-03-22T12:37:54;94825.22;;;13.24;86.80
55424;BME280;41294;42.666;23.350;2023-03-22T12:40:27;94824.66;;;13.34;85.32
55424;BME280;41294;42.666;23.350;2023-03-22T12:43:04;94820.91;;;13.55;84.99
55424;BME280;41294;42.666;23.350;2023-03-22T12:45:38;94828.56;;;13.53;84.32
55424;BME280;41294;42.666;23.350;2023-03-22T12:48:17;94819.88;;;13.53;83.57
55424;BME280;41294;42.666;23.350;2023-03-22T12:50:48;94816.81;;;13.74;80.92
55424;BME280;41294;42.666;23.350;2023-03-22T12:53:17;94818.25;;;13.55;79.39
55424;BME280;41294;42.666;23.350;2023-03-22T12:55:45;94820.16;;;13.26;82.08
55424;BME280;41294;42.666;23.350;2023-03-22T12:58:17;94824.19;;;13.36;82.11
55424;BME280;41294;42.666;23.350;2023-03-22T13:03:45;94821.03;;;13.66;81.36
55424;BME280;41294;42.666;23.350;2023-03-22T13:06:33;94817.22;;;13.67;80.48
55424;BME280;41294;42.666;23.350;2023-03-22T13:11:48;94817.22;;;13.53;80.68
55424;BME280;41294;42.666;23.350;2023-03-22T13:33:26;94808.88;;;12.97;82.56
55424;BME280;41294;42.666;23.350;2023-03-22T13:36:03;94807.22;;;13.13;84.40
55424;BME280;41294;42.666;23.350;2023-03-22T13:38:34;94809.44;;;13.01;86.94
55424;BME280;41294;42.666;23.350;2023-03-22T13:41:34;94808.06;;;13.05;86.61
55424;BME280;41294;42.666;23.350;2023-03-22T13:44:19;94815.91;;;13.28;86.22
55424;BME280;41294;42.666;23.350;2023-03-22T13:46:52;94812.44;;;13.22;85.44
55424;BME280;41294;42.666;23.350;2023-03-22T13:49:42;94812.25;;;13.26;85.26
55424;BME280;41294;42.666;23.350;2023-03-22T13:52:22;94818.38;;;13.32;86.03
55424;BME280;41294;42.666;23.350;2023-03-22T13:54:48;94817.13;;;13.62;86.00
55424;BME280;41294;42.666;23.350;2023-03-22T13:57:44;94818.28;;;13.75;83.34
55424;BME280;41294;42.666;23.350;2023-03-22T14:02:42;94815.75;;;13.66;83.59
55424;BME280;41294;42.666;23.350;2023-03-22T14:05:15;94814.16;;;13.40;82.16
55424;BME280;41294;42.666;23.350;2023-03-22T14:07:46;94809.84;;;12.70;85.66
55424;BME280;41294;42.666;23.350;2023-03-22T14:13:20;94808.13;;;13.39;82.28